createdAt,value
2019-03-06T00:04:27.331Z,20.90
2019-03-06T00:07:19.495Z,21.57
2019-03-06T00:10:12.998Z,24.47
2019-03-06T00:13:46.373Z,21.77
2019-03-06T00:15:34.876Z,23.53
2019-03-06T00:18:04.847Z,23.83
2019-03-06T00:20:36.269Z,22.87
2019-03-06T00:23:19.453Z,23.20
2019-03-06T00:28:52.833Z,24.87
2019-03-06T00:31:29.838Z,25.20
2019-03-06T00:37:00.795Z,25.20
2019-03-06T00:39:38.749Z,26.67
2019-03-06T01:48:38.008Z,31.60
2019-03-06T01:51:07.810Z,29.07
2019-03-06T01:53:36.432Z,29.33
2019-03-06T01:56:07.861Z,31.90
2019-03-06T01:58:39.775Z,30.53
2019-03-06T02:01:09.329Z,29.37
2019-03-06T02:09:59.902Z,34.97
2019-03-06T02:30:51.321Z,30.77
2019-03-06T02:39:35.345Z,30.07
2019-03-06T02:42:09.821Z,29.07
2019-03-06T03:02:59.089Z,34.00
2019-03-06T03:39:33.889Z,1.90
2019-03-06T04:06:41.773Z,5.93
2019-03-06T04:51:27.316Z,9.40
2019-03-06T04:57:29.051Z,13.27
2019-03-06T04:59:48.663Z,11.57
2019-03-06T05:02:25.098Z,12.90
2019-03-06T05:05:03.244Z,10.37
2019-03-06T05:07:38.755Z,10.90
2019-03-06T05:10:22.184Z,9.17
2019-03-06T05:13:01.243Z,9.73
2019-03-06T05:18:51.048Z,8.77
2019-03-06T05:21:36.218Z,5.23
2019-03-06T05:30:14.978Z,4.37
2019-03-06T05:36:11.172Z,4.87
2019-03-06T05:39:10.512Z,6.27
2019-03-06T05:41:48.086Z,6.60
2019-03-06T05:44:32.151Z,6.67
2019-03-06T05:50:34.364Z,7.37
2019-03-06T05:53:21.744Z,8.17
2019-03-06T05:55:45.868Z,7.37
2019-03-06T05:58:25.191Z,9.53
2019-03-06T06:00:53.727Z,14.03
2019-03-06T06:03:23.602Z,13.13
2019-03-06T06:05:52.398Z,14.17
2019-03-06T06:08:24.446Z,15.03
2019-03-06T06:10:58.396Z,15.77
2019-03-06T06:13:41.645Z,17.17
2019-03-06T06:16:10.355Z,12.90
2019-03-06T06:18:45.841Z,9.70
2019-03-06T06:21:23.098Z,9.80
2019-03-06T06:23:56.521Z,9.43
2019-03-06T06:26:38.510Z,9.30
2019-03-06T06:32:07.460Z,11.80
2019-03-06T06:34:37.316Z,10.30
2019-03-06T06:37:12.720Z,8.80
2019-03-06T06:39:55.129Z,8.40
2019-03-06T06:42:29.202Z,10.30
2019-03-06T06:44:59.659Z,9.83
2019-03-06T06:50:26.805Z,8.97
2019-03-06T06:53:13.541Z,8.23
2019-03-06T06:56:09.872Z,10.43
2019-03-06T06:58:46.458Z,9.43
2019-03-06T07:01:58.550Z,10.30
2019-03-06T07:04:19.352Z,11.87
2019-03-06T07:07:16.107Z,9.43
2019-03-06T07:09:51.553Z,8.30
2019-03-06T07:12:51.872Z,8.67
2019-03-06T07:18:36.069Z,10.00
2019-03-06T07:21:13.462Z,10.43
2019-03-06T07:23:59.385Z,10.33
2019-03-06T07:26:33.672Z,11.97
2019-03-06T07:29:14.025Z,14.17
2019-03-06T07:32:14.623Z,15.37
2019-03-06T07:35:06.312Z,13.07
2019-03-06T07:37:40.438Z,12.57
2019-03-06T07:46:09.474Z,14.50
2019-03-06T07:48:46.827Z,13.77
2019-03-06T07:51:17.578Z,13.17
2019-03-06T07:54:14.114Z,17.77
2019-03-06T07:56:52.482Z,13.00
2019-03-06T07:59:22.494Z,13.93
2019-03-06T08:02:02.426Z,15.97
2019-03-06T08:04:44.352Z,15.23
2019-03-06T08:07:16.875Z,16.83
2019-03-06T08:09:45.985Z,25.73
2019-03-06T08:12:24.477Z,17.17
2019-03-06T08:14:57.800Z,15.00
2019-03-06T08:17:27.990Z,14.47
2019-03-06T08:20:17.388Z,18.80
2019-03-06T08:23:04.290Z,18.73
2019-03-06T08:25:45.028Z,15.90
2019-03-06T08:28:15.022Z,14.43
2019-03-06T08:30:45.660Z,17.27
2019-03-06T08:33:18.434Z,17.70
2019-03-06T08:35:48.957Z,19.23
2019-03-06T08:38:18.042Z,18.50
2019-03-06T08:40:47.698Z,14.40
2019-03-06T08:43:17.267Z,17.63
2019-03-06T08:45:53.457Z,17.37
2019-03-06T08:48:29.830Z,20.20
2019-03-06T08:51:12.418Z,19.93
2019-03-06T08:53:56.000Z,22.80
2019-03-06T08:56:29.147Z,32.03
2019-03-06T08:59:05.237Z,45.17
2019-03-06T09:02:28.758Z,46.33
2019-03-06T09:05:08.621Z,48.50
2019-03-06T09:07:49.158Z,48.90
2019-03-06T09:10:25.644Z,52.87
2019-03-06T09:13:05.102Z,51.00
2019-03-06T09:15:38.705Z,50.27
2019-03-06T09:18:23.817Z,56.47
2019-03-06T09:20:54.043Z,54.67
2019-03-06T09:23:24.276Z,57.87
2019-03-06T09:25:57.386Z,57.53
2019-03-06T09:28:37.488Z,59.10
2019-03-06T09:31:25.474Z,53.00
2019-03-06T09:34:03.603Z,57.73
2019-03-06T09:36:41.505Z,65.80
2019-03-06T09:39:22.081Z,59.57
2019-03-06T09:41:59.863Z,65.57
2019-03-06T09:44:38.086Z,64.77
2019-03-06T09:47:08.865Z,59.87
2019-03-06T09:49:41.870Z,56.10
2019-03-06T09:52:15.393Z,63.90
2019-03-06T09:54:54.972Z,64.23
2019-03-06T09:57:39.739Z,64.27
2019-03-06T10:00:14.282Z,63.93
2019-03-06T10:02:55.792Z,61.57
2019-03-06T10:05:48.625Z,59.90
2019-03-06T10:08:26.187Z,59.03
2019-03-06T10:11:01.094Z,55.17
2019-03-06T10:16:48.597Z,48.70
2019-03-06T10:22:13.468Z,57.97
2019-03-06T10:24:47.548Z,58.33
2019-03-06T10:27:23.658Z,59.33
2019-03-06T10:30:02.427Z,66.90
2019-03-06T10:32:38.544Z,65.83
2019-03-06T10:35:09.484Z,65.70
2019-03-06T10:37:46.159Z,70.07
2019-03-06T10:40:20.471Z,65.20
2019-03-06T10:42:59.289Z,57.47
2019-03-06T10:45:46.234Z,61.47
2019-03-06T10:48:14.889Z,67.50
2019-03-06T10:50:44.021Z,57.60
2019-03-06T10:53:15.165Z,60.60
2019-03-06T10:55:47.685Z,58.67
2019-03-06T10:58:24.744Z,50.30
2019-03-06T11:00:56.240Z,57.87
2019-03-06T11:03:32.265Z,57.00
2019-03-06T11:06:03.524Z,54.23
2019-03-06T11:08:37.206Z,53.70
2019-03-06T11:11:08.559Z,51.63
2019-03-06T11:16:31.875Z,51.07
2019-03-06T11:19:02.202Z,53.43
2019-03-06T11:21:39.383Z,53.20
2019-03-06T11:24:08.690Z,61.03
2019-03-06T11:26:38.420Z,53.20
2019-03-06T11:29:08.830Z,57.63
2019-03-06T11:31:41.562Z,55.03
2019-03-06T11:34:13.070Z,61.43
2019-03-06T11:36:43.364Z,60.00
2019-03-06T11:39:17.292Z,57.00
2019-03-06T11:41:46.587Z,59.40
2019-03-06T11:44:15.154Z,60.87
2019-03-06T11:46:43.983Z,51.53
2019-03-06T11:49:15.846Z,54.07
2019-03-06T11:51:44.354Z,53.23
2019-03-06T11:54:13.087Z,53.03
2019-03-06T11:56:43.967Z,50.37
2019-03-06T11:59:14.571Z,45.70
2019-03-06T12:04:34.334Z,41.30
2019-03-06T12:07:18.625Z,35.43
2019-03-06T12:09:52.702Z,40.37
2019-03-06T12:12:24.916Z,38.10
2019-03-06T12:17:59.233Z,34.73
2019-03-06T12:20:41.235Z,35.60
2019-03-06T12:23:14.499Z,31.17
2019-03-06T12:28:58.112Z,30.57
2019-03-06T12:34:34.873Z,27.40
2019-03-06T12:37:05.367Z,28.20
2019-03-06T12:39:39.885Z,29.33
2019-03-06T12:42:14.389Z,25.60
2019-03-06T12:44:54.105Z,24.67
2019-03-06T12:47:22.543Z,23.73
2019-03-06T12:49:51.215Z,23.63
2019-03-06T12:52:22.631Z,23.90
2019-03-06T12:54:55.019Z,26.50
2019-03-06T12:57:23.663Z,26.83
2019-03-06T12:59:52.660Z,24.97
2019-03-06T13:02:21.260Z,26.63
2019-03-06T13:04:50.456Z,24.37
2019-03-06T13:07:19.013Z,25.97
2019-03-06T13:10:01.204Z,22.37
2019-03-06T13:12:41.601Z,24.30
2019-03-06T13:15:16.672Z,24.97
2019-03-06T13:17:48.978Z,25.53
2019-03-06T13:20:19.403Z,27.33
2019-03-06T13:22:51.985Z,25.20
2019-03-06T13:25:22.324Z,21.10
2019-03-06T13:28:13.986Z,24.30
2019-03-06T13:30:44.084Z,23.13
2019-03-06T13:33:18.207Z,20.90
2019-03-06T13:35:54.330Z,21.10
2019-03-06T13:38:23.444Z,25.70
2019-03-06T13:40:55.694Z,25.40
2019-03-06T13:46:17.523Z,25.43
2019-03-06T13:48:46.330Z,25.00
2019-03-06T13:51:27.985Z,24.10
2019-03-06T13:54:10.211Z,27.20
2019-03-06T13:56:51.919Z,25.23
2019-03-06T13:59:20.589Z,26.27
2019-03-06T14:01:49.324Z,27.70
2019-03-06T14:04:17.914Z,25.63
2019-03-06T14:06:51.468Z,28.60
2019-03-06T14:09:20.026Z,31.73
2019-03-06T14:11:48.656Z,31.43
2019-03-06T14:14:17.247Z,26.40
2019-03-06T14:16:45.856Z,24.57
2019-03-06T14:19:14.868Z,53.23
2019-03-06T14:21:43.510Z,25.57
2019-03-06T14:24:12.191Z,25.17
2019-03-06T14:26:40.886Z,22.97
2019-03-06T14:29:09.530Z,24.00
2019-03-06T14:31:38.196Z,19.23
2019-03-06T14:34:06.836Z,23.60
2019-03-06T14:36:36.416Z,21.20
2019-03-06T14:39:08.140Z,22.00
2019-03-06T14:41:36.674Z,25.40
2019-03-06T14:44:05.345Z,17.47
2019-03-06T14:46:34.022Z,22.97
2019-03-06T14:49:02.667Z,22.23
2019-03-06T14:51:31.451Z,26.87
2019-03-06T14:54:00.069Z,25.67
2019-03-06T14:56:29.848Z,22.37
2019-03-06T14:58:58.442Z,26.37
2019-03-06T15:01:27.183Z,28.00
2019-03-06T15:03:55.739Z,21.23
2019-03-06T15:06:24.291Z,21.50
2019-03-06T15:08:52.893Z,23.03
2019-03-06T15:11:21.715Z,22.07
2019-03-06T15:13:50.459Z,20.70
2019-03-06T15:16:19.091Z,23.13
2019-03-06T15:18:47.821Z,23.57
2019-03-06T15:21:19.547Z,22.87
2019-03-06T15:23:48.146Z,23.07
2019-03-06T15:26:19.712Z,28.57
2019-03-06T15:28:49.346Z,23.00
2019-03-06T15:31:21.452Z,22.43
2019-03-06T15:33:54.146Z,28.93
2019-03-06T15:36:24.354Z,22.53
2019-03-06T15:38:53.942Z,22.80
2019-03-06T15:41:22.699Z,22.83
2019-03-06T15:43:51.314Z,21.40
2019-03-06T15:46:19.955Z,25.07
2019-03-06T15:48:48.603Z,22.60
2019-03-06T15:51:17.236Z,24.07
2019-03-06T15:53:46.050Z,23.80
2019-03-06T15:56:14.738Z,23.83
2019-03-06T15:58:43.473Z,24.67
2019-03-06T16:01:14.099Z,24.57
2019-03-06T16:03:47.684Z,24.27
2019-03-06T16:06:20.340Z,34.03
2019-03-06T16:08:46.695Z,30.23
2019-03-06T16:11:15.341Z,29.03
2019-03-06T16:13:43.968Z,22.00
2019-03-06T16:16:12.743Z,25.90
2019-03-06T16:18:41.684Z,27.97
2019-03-06T16:21:10.792Z,31.07
2019-03-06T16:23:39.414Z,33.93
2019-03-06T16:26:08.071Z,31.20
2019-03-06T16:28:42.718Z,33.80
2019-03-06T16:31:11.745Z,29.60
2019-03-06T16:33:40.645Z,24.33
2019-03-06T16:36:09.434Z,37.27
2019-03-06T16:38:54.233Z,32.33
2019-03-06T16:41:23.463Z,27.37
2019-03-06T16:43:53.739Z,30.27
2019-03-06T16:46:22.444Z,28.47
2019-03-06T16:48:51.612Z,33.50
2019-03-06T16:51:20.199Z,40.57
2019-03-06T16:53:49.052Z,46.37
2019-03-06T16:56:17.620Z,43.57
2019-03-06T16:58:47.296Z,49.33
2019-03-06T17:01:15.974Z,49.33
2019-03-06T17:03:44.600Z,52.93
2019-03-06T17:06:13.248Z,53.33
2019-03-06T17:08:41.841Z,51.80
2019-03-06T17:11:11.536Z,60.63
2019-03-06T17:13:40.386Z,63.97
2019-03-06T17:16:09.038Z,62.73
2019-03-06T17:18:39.141Z,60.40
2019-03-06T17:21:07.923Z,62.17
2019-03-06T17:23:36.616Z,65.23
2019-03-06T17:26:06.246Z,60.60
2019-03-06T17:28:36.157Z,65.73
2019-03-06T17:31:05.897Z,62.30
2019-03-06T17:33:34.439Z,69.00
2019-03-06T17:36:03.096Z,69.50
2019-03-06T17:38:31.933Z,69.33
2019-03-06T17:41:00.524Z,71.03
2019-03-06T17:43:29.607Z,70.72
2019-03-06T17:45:58.166Z,73.83
2019-03-06T17:48:26.731Z,71.00
2019-03-06T17:50:56.604Z,79.97
2019-03-06T17:53:29.091Z,65.10
2019-03-06T17:55:58.433Z,72.20
2019-03-06T17:58:27.590Z,70.43
2019-03-06T18:00:57.907Z,75.60
2019-03-06T18:03:31.053Z,75.60
2019-03-06T18:05:59.632Z,74.13
2019-03-06T18:08:28.284Z,71.50
2019-03-06T18:10:56.979Z,75.40
2019-03-06T18:13:25.583Z,74.53
2019-03-06T18:15:54.138Z,69.37
2019-03-06T18:18:23.804Z,75.93
2019-03-06T18:20:52.432Z,75.70
2019-03-06T18:23:21.053Z,73.97
2019-03-06T18:25:49.826Z,72.30
2019-03-06T18:28:19.020Z,78.37
2019-03-06T18:30:47.614Z,75.80
2019-03-06T18:33:16.429Z,77.57
2019-03-06T18:35:44.948Z,86.90
2019-03-06T18:38:13.584Z,95.37
2019-03-06T18:40:42.241Z,86.00
2019-03-06T18:43:13.277Z,83.20
2019-03-06T18:45:41.927Z,82.43
2019-03-06T18:48:10.642Z,78.47
2019-03-06T18:50:39.209Z,77.93
2019-03-06T18:53:07.876Z,75.90
2019-03-06T18:55:36.494Z,80.20
2019-03-06T18:58:06.708Z,76.93
2019-03-06T19:00:35.276Z,79.83
2019-03-06T19:03:22.224Z,77.30
2019-03-06T19:05:50.925Z,97.53
2019-03-06T19:08:19.585Z,84.20
2019-03-06T19:10:48.181Z,80.60
2019-03-06T19:13:16.815Z,76.27
2019-03-06T19:15:45.460Z,75.43
2019-03-06T19:18:15.775Z,78.47
2019-03-06T19:20:44.488Z,84.37
2019-03-06T19:23:14.936Z,82.53
2019-03-06T19:25:44.844Z,81.73
2019-03-06T19:28:13.464Z,78.10
2019-03-06T19:33:44.589Z,88.43
2019-03-06T19:36:15.090Z,86.30
2019-03-06T19:38:49.790Z,82.53
2019-03-06T19:41:22.399Z,85.70
2019-03-06T19:43:59.116Z,89.57
2019-03-06T19:49:29.082Z,90.77
2019-03-06T19:51:59.396Z,85.20
2019-03-06T19:54:30.513Z,80.67
2019-03-06T19:57:04.335Z,82.17
2019-03-06T19:59:35.785Z,78.77
2019-03-06T20:02:07.739Z,79.67
2019-03-06T20:07:36.660Z,79.17
2019-03-06T20:13:22.325Z,78.23
2019-03-06T20:15:51.896Z,76.37
2019-03-06T20:18:31.799Z,71.37
2019-03-06T20:21:13.749Z,95.00
2019-03-06T20:27:15.674Z,78.83
2019-03-06T20:29:54.692Z,80.30
2019-03-06T20:32:38.447Z,74.73
2019-03-06T20:41:12.294Z,76.53
2019-03-06T20:43:47.002Z,73.20
2019-03-06T20:46:22.190Z,79.17
2019-03-06T20:48:52.049Z,74.10
2019-03-06T20:51:21.703Z,78.73
2019-03-06T20:53:51.900Z,70.40
2019-03-06T20:56:20.696Z,77.37
2019-03-06T20:58:50.581Z,75.37
2019-03-06T21:01:19.260Z,77.00
2019-03-06T21:03:47.827Z,77.67
2019-03-06T21:06:16.941Z,76.10
2019-03-06T21:08:45.898Z,81.87
2019-03-06T21:11:14.551Z,76.83
2019-03-06T21:13:43.228Z,74.97
2019-03-06T21:16:13.363Z,79.97
2019-03-06T21:18:42.053Z,78.33
2019-03-06T21:21:11.229Z,76.77
2019-03-06T21:23:45.086Z,72.20
2019-03-06T21:26:13.648Z,75.00
2019-03-06T21:28:44.154Z,91.90
2019-03-06T21:31:14.151Z,80.97
2019-03-06T21:33:44.092Z,72.90
2019-03-06T21:36:12.660Z,75.10
2019-03-06T21:38:47.550Z,80.43
2019-03-06T21:41:12.090Z,76.90
2019-03-06T21:43:41.208Z,72.40
2019-03-06T21:46:12.808Z,76.97
2019-03-06T21:48:41.524Z,77.50
2019-03-06T21:51:10.683Z,75.47
2019-03-06T21:53:39.802Z,75.77
2019-03-06T21:56:11.629Z,72.47
2019-03-06T21:58:41.628Z,76.27
2019-03-06T22:01:10.200Z,73.97
2019-03-06T22:03:40.835Z,75.27
2019-03-06T22:06:09.571Z,71.33
2019-03-06T22:08:42.058Z,73.67
2019-03-06T22:11:10.669Z,73.30
2019-03-06T22:13:39.825Z,73.70
2019-03-06T22:16:08.582Z,74.80
2019-03-06T22:18:37.294Z,69.53
2019-03-06T22:21:05.916Z,67.67
2019-03-06T22:23:34.515Z,75.80
2019-03-06T22:26:03.931Z,72.00
2019-03-06T22:28:33.009Z,74.63
2019-03-06T22:31:01.754Z,72.90
2019-03-06T22:33:31.671Z,69.97
2019-03-06T22:36:00.243Z,72.87
2019-03-06T22:38:30.824Z,68.80
2019-03-06T22:41:00.741Z,69.80
2019-03-06T22:43:29.670Z,74.90
2019-03-06T22:46:00.241Z,70.40
2019-03-06T22:48:29.522Z,73.50
2019-03-06T22:51:07.726Z,73.47
2019-03-06T22:53:36.565Z,76.83
2019-03-06T22:56:07.641Z,71.73
2019-03-06T22:58:36.342Z,67.43
2019-03-06T23:01:08.084Z,69.57
2019-03-06T23:03:36.757Z,67.77
2019-03-06T23:06:06.002Z,69.37
2019-03-06T23:08:36.986Z,69.57
2019-03-06T23:11:06.314Z,65.87
2019-03-06T23:13:35.881Z,68.27
2019-03-06T23:16:04.539Z,69.43
2019-03-06T23:18:33.713Z,65.43
2019-03-06T23:21:03.140Z,70.70
2019-03-06T23:23:31.751Z,66.60
2019-03-06T23:26:01.464Z,67.40
2019-03-06T23:28:31.425Z,66.13
2019-03-06T23:30:59.997Z,66.87
2019-03-06T23:33:29.087Z,64.33
2019-03-06T23:35:57.635Z,62.60
2019-03-06T23:38:27.725Z,64.53
2019-03-06T23:40:56.359Z,66.13
2019-03-06T23:43:26.021Z,65.30
2019-03-06T23:45:54.603Z,64.57
2019-03-06T23:49:10.775Z,62.77
2019-03-06T23:51:48.742Z,60.63
2019-03-06T23:54:23.245Z,64.00
2019-03-06T23:56:51.830Z,62.60
2019-03-06T23:59:21.217Z,64.07
